createdAt,value
2023-02-27T00:00:14.965Z,76.84
2023-02-27T00:02:43.432Z,77.04
2023-02-27T00:05:10.991Z,77.49
2023-02-27T00:07:38.091Z,77.03
2023-02-27T00:10:06.088Z,76.61
2023-02-27T00:12:38.027Z,76.59
2023-02-27T00:15:10.364Z,78.50
2023-02-27T00:17:37.408Z,77.28
2023-02-27T00:20:06.614Z,76.61
2023-02-27T00:22:33.300Z,77.09
2023-02-27T00:24:59.977Z,77.06
2023-02-27T00:27:26.773Z,77.08
2023-02-27T00:29:53.475Z,78.65
2023-02-27T00:32:20.295Z,77.27
2023-02-27T00:34:47.381Z,78.28
2023-02-27T00:37:15.179Z,79.28
2023-02-27T00:39:42.043Z,78.59
2023-02-27T00:42:09.012Z,79.53
2023-02-27T00:44:35.762Z,77.00
2023-02-27T00:47:02.500Z,78.44
2023-02-27T00:49:29.187Z,78.27
2023-02-27T00:51:55.842Z,78.90
2023-02-27T00:54:24.028Z,78.11
2023-02-27T00:56:50.789Z,79.64
2023-02-27T00:59:17.718Z,80.35
2023-02-27T01:01:45.507Z,79.24
2023-02-27T01:04:12.230Z,78.10
2023-02-27T01:06:38.894Z,79.55
2023-02-27T01:09:05.674Z,79.63
2023-02-27T01:11:32.756Z,77.72
2023-02-27T01:14:00.398Z,79.18
2023-02-27T01:16:27.197Z,79.69
2023-02-27T01:18:54.271Z,79.76
2023-02-27T01:21:22.898Z,79.92
2023-02-27T01:23:49.911Z,80.62
2023-02-27T01:26:19.267Z,79.69
2023-02-27T01:28:46.004Z,79.11
2023-02-27T01:31:13.244Z,79.65
2023-02-27T01:33:39.946Z,80.83
2023-02-27T01:36:07.085Z,80.47
2023-02-27T01:38:33.761Z,79.34
2023-02-27T01:41:00.881Z,77.43
2023-02-27T01:43:28.254Z,80.13
2023-02-27T01:45:55.557Z,79.91
2023-02-27T01:48:29.063Z,80.41
2023-02-27T01:50:59.222Z,79.99
2023-02-27T01:53:28.780Z,78.69
2023-02-27T01:56:00.774Z,79.82
2023-02-27T01:58:28.060Z,79.41
2023-02-27T02:00:55.694Z,79.99
2023-02-27T02:03:33.083Z,81.09
2023-02-27T02:06:02.359Z,80.69
2023-02-27T02:08:33.357Z,80.88
2023-02-27T02:11:00.559Z,81.54
2023-02-27T02:13:28.112Z,81.04
2023-02-27T02:16:20.326Z,81.27
2023-02-27T02:19:27.778Z,81.75
2023-02-27T02:22:33.091Z,80.15
2023-02-27T02:25:37.481Z,81.85
2023-02-27T02:28:40.960Z,82.69
2023-02-27T02:31:33.180Z,83.77
2023-02-27T02:34:10.212Z,84.32
2023-02-27T02:36:58.142Z,84.32
2023-02-27T02:39:30.605Z,84.50
2023-02-27T02:42:04.001Z,84.21
2023-02-27T02:44:44.234Z,83.26
2023-02-27T02:47:31.351Z,81.38
2023-02-27T02:50:12.543Z,83.01
2023-02-27T02:53:16.863Z,82.00
2023-02-27T02:55:49.441Z,79.60
2023-02-27T02:58:36.028Z,82.09
2023-02-27T03:01:13.456Z,80.82
2023-02-27T03:03:47.792Z,78.36
2023-02-27T03:06:20.362Z,81.70
2023-02-27T03:08:54.123Z,82.45
2023-02-27T03:11:26.534Z,80.87
2023-02-27T03:14:03.360Z,83.15
2023-02-27T03:16:36.728Z,82.61
2023-02-27T03:19:13.675Z,83.82
2023-02-27T03:21:50.373Z,83.18
2023-02-27T03:24:23.493Z,82.58
2023-02-27T03:26:52.886Z,82.88
2023-02-27T03:29:26.631Z,83.00
2023-02-27T03:32:02.194Z,82.74
2023-02-27T03:34:35.379Z,81.84
2023-02-27T03:37:45.104Z,81.19
2023-02-27T03:40:26.994Z,80.55
2023-02-27T03:43:14.379Z,81.61
2023-02-27T03:45:49.291Z,83.10
2023-02-27T03:48:16.457Z,81.06
2023-02-27T03:50:43.631Z,81.49
2023-02-27T03:53:44.322Z,83.82
2023-02-27T03:56:12.408Z,82.43
2023-02-27T03:58:39.590Z,82.54
2023-02-27T04:01:06.364Z,81.60
2023-02-27T04:03:37.391Z,82.03
2023-02-27T04:06:24.993Z,82.06
2023-02-27T04:09:34.934Z,81.51
2023-02-27T04:12:39.945Z,81.67
2023-02-27T04:15:18.500Z,82.47
2023-02-27T04:18:15.823Z,82.33
2023-02-27T04:20:52.045Z,82.39
2023-02-27T04:23:38.544Z,82.59
2023-02-27T04:26:18.098Z,81.83
2023-02-27T04:28:59.883Z,80.73
2023-02-27T04:31:48.118Z,82.68
2023-02-27T04:34:39.708Z,80.91
2023-02-27T04:37:12.489Z,81.14
2023-02-27T04:39:51.695Z,82.24
2023-02-27T04:42:24.190Z,80.82
2023-02-27T04:44:54.803Z,80.79
2023-02-27T04:47:24.165Z,80.97
2023-02-27T04:49:56.382Z,79.16
2023-02-27T04:52:38.547Z,79.95
2023-02-27T04:55:13.545Z,80.45
2023-02-27T04:58:10.524Z,80.90
2023-02-27T05:00:39.982Z,76.72
2023-02-27T05:03:19.417Z,78.05
2023-02-27T05:05:48.339Z,78.22
2023-02-27T05:08:39.300Z,79.01
2023-02-27T05:11:36.725Z,78.77
2023-02-27T05:14:19.722Z,79.06
2023-02-27T05:16:57.516Z,79.74
2023-02-27T05:19:24.158Z,77.38
2023-02-27T05:22:02.468Z,79.67
2023-02-27T05:24:38.798Z,78.42
2023-02-27T05:27:33.463Z,80.08
2023-02-27T05:30:09.055Z,80.34
2023-02-27T05:33:15.710Z,80.45
2023-02-27T05:35:50.627Z,79.07
2023-02-27T05:38:28.019Z,77.26
2023-02-27T05:41:01.055Z,79.20
2023-02-27T05:43:51.423Z,79.69
2023-02-27T05:46:22.953Z,80.08
2023-02-27T05:48:57.181Z,79.95
2023-02-27T05:51:27.098Z,79.15
2023-02-27T05:54:13.580Z,79.05
2023-02-27T05:56:43.073Z,77.81
2023-02-27T05:59:34.399Z,79.69
2023-02-27T06:02:01.696Z,79.97
2023-02-27T06:04:28.869Z,77.81
2023-02-27T06:06:55.393Z,77.90
2023-02-27T06:09:22.121Z,80.28
2023-02-27T06:11:48.568Z,78.35
2023-02-27T06:14:15.030Z,78.56
2023-02-27T06:16:41.556Z,77.37
2023-02-27T06:19:08.028Z,78.48
2023-02-27T06:21:34.513Z,79.34
2023-02-27T06:24:01.002Z,80.45
2023-02-27T06:26:28.047Z,78.36
2023-02-27T06:28:54.753Z,76.93
2023-02-27T06:31:21.320Z,76.42
2023-02-27T06:33:47.820Z,78.51
2023-02-27T06:36:14.452Z,77.90
2023-02-27T06:38:40.987Z,76.66
2023-02-27T06:41:07.535Z,77.59
2023-02-27T06:43:36.514Z,78.71
2023-02-27T06:46:03.093Z,77.16
2023-02-27T06:48:29.608Z,76.91
2023-02-27T06:50:56.847Z,77.71
2023-02-27T06:53:24.265Z,78.49
2023-02-27T06:55:51.203Z,77.91
2023-02-27T06:58:18.261Z,74.49
2023-02-27T07:00:45.026Z,77.79
2023-02-27T07:03:12.512Z,77.31
2023-02-27T07:05:40.950Z,77.24
2023-02-27T07:08:07.706Z,77.05
2023-02-27T07:10:34.125Z,74.64
2023-02-27T07:13:00.546Z,73.18
2023-02-27T07:15:27.028Z,73.58
2023-02-27T07:17:54.423Z,74.21
2023-02-27T07:20:20.970Z,71.51
2023-02-27T07:22:47.897Z,71.20
2023-02-27T07:25:14.593Z,72.87
2023-02-27T07:27:41.051Z,72.76
2023-02-27T07:30:08.506Z,72.50
2023-02-27T07:32:34.989Z,72.23
2023-02-27T07:35:03.404Z,71.89
2023-02-27T07:37:29.948Z,71.91
2023-02-27T07:39:56.425Z,71.46
2023-02-27T07:42:22.910Z,72.12
2023-02-27T07:44:49.400Z,70.97
2023-02-27T07:47:17.667Z,71.32
2023-02-27T07:49:44.469Z,71.28
2023-02-27T07:52:11.369Z,71.17
2023-02-27T07:54:38.342Z,68.14
2023-02-27T07:57:05.391Z,69.66
2023-02-27T07:59:32.639Z,68.83
2023-02-27T08:01:59.189Z,69.64
2023-02-27T08:04:25.699Z,69.21
2023-02-27T08:06:52.166Z,65.63
2023-02-27T08:09:18.721Z,67.50
2023-02-27T08:11:47.261Z,67.57
2023-02-27T08:14:15.368Z,68.36
2023-02-27T08:16:41.861Z,66.92
2023-02-27T08:19:08.391Z,67.68
2023-02-27T08:21:34.869Z,66.88
2023-02-27T08:24:02.406Z,66.28
2023-02-27T08:26:29.261Z,64.93
2023-02-27T08:28:55.908Z,66.29
2023-02-27T08:31:22.578Z,67.00
2023-02-27T08:33:55.288Z,65.21
2023-02-27T08:36:24.495Z,66.68
2023-02-27T08:38:50.976Z,66.14
2023-02-27T08:41:17.749Z,66.26
2023-02-27T08:43:44.232Z,65.81
2023-02-27T08:46:11.112Z,64.32
2023-02-27T08:48:37.854Z,61.97
2023-02-27T08:51:04.346Z,63.34
2023-02-27T08:53:30.855Z,62.74
2023-02-27T08:55:57.367Z,61.04
2023-02-27T08:58:23.855Z,63.99
2023-02-27T09:00:50.385Z,62.45
2023-02-27T09:03:16.831Z,61.87
2023-02-27T09:05:43.417Z,59.92
2023-02-27T09:08:09.914Z,59.45
2023-02-27T09:10:36.556Z,61.21
2023-02-27T09:13:03.326Z,58.61
2023-02-27T09:15:31.752Z,60.83
2023-02-27T09:18:02.932Z,59.60
2023-02-27T09:20:31.661Z,59.05
2023-02-27T09:22:59.948Z,56.90
2023-02-27T09:25:27.575Z,57.40
2023-02-27T09:27:54.765Z,56.26
2023-02-27T09:30:21.782Z,58.15
2023-02-27T09:32:48.739Z,56.42
2023-02-27T09:35:15.924Z,56.15
2023-02-27T09:37:43.887Z,56.13
2023-02-27T09:40:22.674Z,57.72
2023-02-27T09:42:50.501Z,54.97
2023-02-27T09:45:29.917Z,56.89
2023-02-27T09:47:58.840Z,54.90
2023-02-27T09:50:37.808Z,56.58
2023-02-27T09:53:09.529Z,54.09
2023-02-27T09:55:40.022Z,53.63
2023-02-27T09:58:30.962Z,52.52
2023-02-27T10:01:08.674Z,53.78
2023-02-27T10:04:00.244Z,55.79
2023-02-27T10:06:34.180Z,54.11
2023-02-27T10:09:22.853Z,52.11
2023-02-27T10:12:26.752Z,53.17
2023-02-27T10:15:03.336Z,54.56
2023-02-27T10:17:42.899Z,52.90
2023-02-27T10:20:34.514Z,54.00
2023-02-27T10:23:06.675Z,54.40
2023-02-27T10:25:39.746Z,54.45
2023-02-27T10:28:13.862Z,53.48
2023-02-27T10:30:41.801Z,53.69
2023-02-27T10:33:18.778Z,52.71
2023-02-27T10:35:45.539Z,54.51
2023-02-27T10:38:22.875Z,53.44
2023-02-27T10:40:49.896Z,52.97
2023-02-27T10:43:19.117Z,53.69
2023-02-27T10:45:45.720Z,55.30
2023-02-27T10:48:14.395Z,52.01
2023-02-27T10:50:43.551Z,53.62
2023-02-27T10:53:27.066Z,51.90
2023-02-27T10:56:10.652Z,48.95
2023-02-27T10:58:38.066Z,51.74
2023-02-27T11:01:07.008Z,50.90
2023-02-27T11:03:40.531Z,50.05
2023-02-27T11:06:10.264Z,50.22
2023-02-27T11:08:36.825Z,50.66
2023-02-27T11:11:09.708Z,52.20
2023-02-27T11:13:38.120Z,52.75
2023-02-27T11:16:16.617Z,50.25
2023-02-27T11:18:45.377Z,49.68
2023-02-27T11:21:24.666Z,51.28
2023-02-27T11:23:54.754Z,52.26
2023-02-27T11:26:36.839Z,51.27
2023-02-27T11:29:15.119Z,50.20
2023-02-27T11:32:00.474Z,52.36
2023-02-27T11:34:31.481Z,53.27
2023-02-27T11:37:28.318Z,52.30
2023-02-27T11:40:14.560Z,51.83
2023-02-27T11:42:47.448Z,52.08
2023-02-27T11:46:14.694Z,52.43
2023-02-27T11:48:39.751Z,52.21
2023-02-27T11:51:06.999Z,52.38
2023-02-27T11:53:58.384Z,52.60
2023-02-27T11:56:58.405Z,51.12
2023-02-27T11:59:32.680Z,52.38
2023-02-27T12:02:10.673Z,52.39
2023-02-27T12:04:51.001Z,52.15
2023-02-27T12:07:30.743Z,51.57
2023-02-27T12:10:05.824Z,51.49
2023-02-27T12:12:36.245Z,51.72
2023-02-27T12:15:15.068Z,52.10
2023-02-27T12:17:50.080Z,52.09
2023-02-27T12:20:46.492Z,52.15
2023-02-27T12:23:21.963Z,50.87
2023-02-27T12:25:59.239Z,52.38
2023-02-27T12:29:02.115Z,50.36
2023-02-27T12:31:34.479Z,50.72
2023-02-27T12:34:03.639Z,49.12
2023-02-27T12:36:30.857Z,51.38
2023-02-27T12:38:57.385Z,50.54
2023-02-27T12:41:36.591Z,48.99
2023-02-27T12:44:34.852Z,50.14
2023-02-27T12:47:18.789Z,51.58
2023-02-27T12:49:55.096Z,49.40
2023-02-27T12:53:00.931Z,49.39
2023-02-27T12:55:30.917Z,48.40
2023-02-27T12:58:29.547Z,49.23
2023-02-27T13:01:03.742Z,48.94
2023-02-27T13:03:50.196Z,48.92
2023-02-27T13:06:33.183Z,49.16
2023-02-27T13:09:08.903Z,47.78
2023-02-27T13:11:51.348Z,50.77
2023-02-27T13:14:36.572Z,49.30
2023-02-27T13:17:10.512Z,51.32
2023-02-27T13:19:47.490Z,51.42
2023-02-27T13:22:25.552Z,51.56
2023-02-27T13:24:56.291Z,52.81
2023-02-27T13:27:28.650Z,51.88
2023-02-27T13:30:08.403Z,51.57
2023-02-27T13:32:52.912Z,50.92
2023-02-27T13:35:39.033Z,52.29
2023-02-27T13:38:42.659Z,51.64
2023-02-27T13:41:21.023Z,50.79
2023-02-27T13:43:52.362Z,50.44
2023-02-27T13:46:33.166Z,49.42
2023-02-27T13:49:05.455Z,49.91
2023-02-27T13:51:34.818Z,51.13
2023-02-27T13:54:13.313Z,49.58
2023-02-27T13:56:54.823Z,50.82
2023-02-27T13:59:36.501Z,48.93
2023-02-27T14:02:11.058Z,49.82
2023-02-27T14:04:50.302Z,51.35
2023-02-27T14:07:21.445Z,52.13
2023-02-27T14:09:51.750Z,49.49
2023-02-27T14:12:43.982Z,49.92
2023-02-27T14:15:17.450Z,50.84
2023-02-27T14:17:46.926Z,49.56
2023-02-27T14:20:33.312Z,49.87
2023-02-27T14:23:14.761Z,49.12
2023-02-27T14:26:13.514Z,48.80
2023-02-27T14:28:51.787Z,49.95
2023-02-27T14:31:30.777Z,49.96
2023-02-27T14:34:05.051Z,49.51
2023-02-27T14:36:45.716Z,51.96
2023-02-27T14:39:26.177Z,50.96
2023-02-27T14:42:21.998Z,50.70
2023-02-27T14:44:50.360Z,51.61
2023-02-27T14:47:29.455Z,52.35
2023-02-27T14:49:56.330Z,51.99
2023-02-27T14:52:31.752Z,50.91
2023-02-27T14:55:17.594Z,52.47
2023-02-27T14:58:16.425Z,50.87
2023-02-27T15:00:57.933Z,50.66
2023-02-27T15:03:29.135Z,49.98
2023-02-27T15:06:01.403Z,51.48
2023-02-27T15:08:36.352Z,52.57
2023-02-27T15:11:02.948Z,52.15
2023-02-27T15:13:32.562Z,51.75
2023-02-27T15:16:23.848Z,52.47
2023-02-27T15:18:57.173Z,50.57
2023-02-27T15:21:26.022Z,52.29
2023-02-27T15:24:01.534Z,53.21
2023-02-27T15:26:30.892Z,53.27
2023-02-27T15:28:59.826Z,53.39
2023-02-27T15:31:31.070Z,54.46
2023-02-27T15:33:59.769Z,52.51
2023-02-27T15:36:30.123Z,54.35
2023-02-27T15:39:06.821Z,53.51
2023-02-27T15:41:33.941Z,54.03
2023-02-27T15:44:02.637Z,52.21
2023-02-27T15:46:29.801Z,54.01
2023-02-27T15:48:56.751Z,53.89
2023-02-27T15:51:26.678Z,55.17
2023-02-27T15:53:57.881Z,53.02
2023-02-27T15:56:34.749Z,53.62
2023-02-27T15:59:02.833Z,53.22
2023-02-27T16:01:40.911Z,55.35
2023-02-27T16:04:20.927Z,54.28
2023-02-27T16:06:51.461Z,54.29
2023-02-27T16:09:33.077Z,55.40
2023-02-27T16:12:23.970Z,54.82
2023-02-27T16:14:53.462Z,56.11
2023-02-27T16:17:23.772Z,55.89
2023-02-27T16:19:50.319Z,55.65
2023-02-27T16:22:19.271Z,55.01
2023-02-27T16:24:46.005Z,54.89
2023-02-27T16:27:24.732Z,54.61
2023-02-27T16:29:53.668Z,54.89
2023-02-27T16:32:30.329Z,54.85
2023-02-27T16:35:03.741Z,56.44
2023-02-27T16:37:39.147Z,56.40
2023-02-27T16:40:26.962Z,56.32
2023-02-27T16:42:53.840Z,55.95
2023-02-27T16:45:25.672Z,55.68
2023-02-27T16:47:54.927Z,56.39
2023-02-27T16:50:31.607Z,56.90
2023-02-27T16:52:58.123Z,56.38
2023-02-27T16:55:25.810Z,55.14
2023-02-27T16:57:52.887Z,56.53
2023-02-27T17:00:20.311Z,57.32
2023-02-27T17:02:48.198Z,56.14
2023-02-27T17:05:17.613Z,55.63
2023-02-27T17:07:44.754Z,55.09
2023-02-27T17:10:16.090Z,56.20
2023-02-27T17:12:43.990Z,55.33
2023-02-27T17:15:10.883Z,56.55
2023-02-27T17:17:37.521Z,56.45
2023-02-27T17:20:07.265Z,57.01
2023-02-27T17:22:39.503Z,56.60
2023-02-27T17:25:07.194Z,56.71
2023-02-27T17:27:33.868Z,56.82
2023-02-27T17:30:00.455Z,55.67
2023-02-27T17:32:26.997Z,57.35
2023-02-27T17:34:54.869Z,57.10
2023-02-27T17:37:22.005Z,56.83
2023-02-27T17:39:48.976Z,57.38
2023-02-27T17:42:18.427Z,56.51
2023-02-27T17:44:46.157Z,58.03
2023-02-27T17:47:12.806Z,56.47
2023-02-27T17:49:39.389Z,56.47
2023-02-27T17:52:07.164Z,56.06
2023-02-27T17:54:35.200Z,58.75
2023-02-27T17:57:02.365Z,57.99
2023-02-27T17:59:28.911Z,57.77
2023-02-27T18:01:55.814Z,58.46
2023-02-27T18:04:22.531Z,58.09
2023-02-27T18:06:50.585Z,58.07
2023-02-27T18:09:17.885Z,58.62
2023-02-27T18:11:44.387Z,58.69
2023-02-27T18:14:10.999Z,59.44
2023-02-27T18:16:37.948Z,59.08
2023-02-27T18:19:06.056Z,58.39
2023-02-27T18:21:33.517Z,59.63
2023-02-27T18:24:00.549Z,59.50
2023-02-27T18:26:32.165Z,58.57
2023-02-27T18:29:06.022Z,58.90
2023-02-27T18:31:35.687Z,60.20
2023-02-27T18:34:02.525Z,58.92
2023-02-27T18:36:30.358Z,58.71
2023-02-27T18:38:58.760Z,58.34
2023-02-27T18:41:25.273Z,58.78
2023-02-27T18:43:52.002Z,58.84
2023-02-27T18:46:19.449Z,58.70
2023-02-27T18:48:46.263Z,60.51
2023-02-27T18:51:15.460Z,59.35
2023-02-27T18:53:45.830Z,59.19
2023-02-27T18:56:14.010Z,57.76
2023-02-27T18:58:40.741Z,58.62
2023-02-27T19:01:08.074Z,59.82
2023-02-27T19:03:36.253Z,59.21
2023-02-27T19:06:03.432Z,59.27
2023-02-27T19:08:30.338Z,58.00
2023-02-27T19:10:57.179Z,58.25
2023-02-27T19:13:25.271Z,59.47
2023-02-27T19:15:52.537Z,58.30
2023-02-27T19:18:19.271Z,59.67
2023-02-27T19:20:46.207Z,58.14
2023-02-27T19:23:12.644Z,59.13
2023-02-27T19:25:39.037Z,59.81
2023-02-27T19:28:06.398Z,58.69
2023-02-27T19:30:32.899Z,61.63
2023-02-27T19:32:59.442Z,59.37
2023-02-27T19:35:25.982Z,61.23
2023-02-27T19:37:56.944Z,60.19
2023-02-27T19:40:24.584Z,59.39
2023-02-27T19:42:51.463Z,61.38
2023-02-27T19:45:18.054Z,62.83
2023-02-27T19:47:44.812Z,63.11
2023-02-27T19:50:11.787Z,63.13
2023-02-27T19:52:38.255Z,62.63
2023-02-27T19:55:05.297Z,63.02
2023-02-27T19:57:34.816Z,62.94
2023-02-27T20:00:02.101Z,63.94
2023-02-27T20:02:40.384Z,63.34
2023-02-27T20:05:07.638Z,64.04
2023-02-27T20:07:34.328Z,64.80
2023-02-27T20:10:00.842Z,64.57
2023-02-27T20:12:28.540Z,62.73
2023-02-27T20:14:55.007Z,64.42
2023-02-27T20:17:21.488Z,62.51
2023-02-27T20:19:47.937Z,64.85
2023-02-27T20:22:15.836Z,65.94
2023-02-27T20:24:44.649Z,65.62
2023-02-27T20:27:11.591Z,66.15
2023-02-27T20:29:38.122Z,64.93
2023-02-27T20:32:04.898Z,64.85
2023-02-27T20:34:31.414Z,63.10
2023-02-27T20:36:58.025Z,64.53
2023-02-27T20:39:25.128Z,67.09
2023-02-27T20:41:51.812Z,66.70
2023-02-27T20:44:18.365Z,64.98
2023-02-27T20:46:44.965Z,65.34
2023-02-27T20:49:15.513Z,67.19
2023-02-27T20:51:42.756Z,67.31
2023-02-27T20:54:14.194Z,65.78
2023-02-27T20:56:41.562Z,65.84
2023-02-27T20:59:11.730Z,66.46
2023-02-27T21:01:38.713Z,65.25
2023-02-27T21:04:06.056Z,67.15
2023-02-27T21:06:32.866Z,67.10
2023-02-27T21:09:03.150Z,66.10
2023-02-27T21:11:31.391Z,67.31
2023-02-27T21:14:02.135Z,66.89
2023-02-27T21:16:28.644Z,67.13
2023-02-27T21:18:56.604Z,67.34
2023-02-27T21:21:28.560Z,67.62
2023-02-27T21:23:55.870Z,68.30
2023-02-27T21:26:26.340Z,68.47
2023-02-27T21:28:55.259Z,67.54
2023-02-27T21:31:23.690Z,68.44
2023-02-27T21:33:51.012Z,69.21
2023-02-27T21:36:17.896Z,68.78
2023-02-27T21:38:45.879Z,68.95
2023-02-27T21:41:12.901Z,69.59
2023-02-27T21:43:40.481Z,70.23
2023-02-27T21:46:09.129Z,67.95
2023-02-27T21:48:35.638Z,68.08
2023-02-27T21:51:02.674Z,68.77
2023-02-27T21:53:29.633Z,69.27
2023-02-27T21:56:02.599Z,70.07
2023-02-27T21:58:29.176Z,69.80
2023-02-27T22:00:55.651Z,67.19
2023-02-27T22:03:22.164Z,67.30
2023-02-27T22:05:48.710Z,68.71
2023-02-27T22:08:15.141Z,69.03
2023-02-27T22:10:47.493Z,68.79
2023-02-27T22:13:15.034Z,69.18
2023-02-27T22:15:42.360Z,68.36
2023-02-27T22:18:09.240Z,68.77
2023-02-27T22:20:38.749Z,67.37
2023-02-27T22:23:06.452Z,68.91
2023-02-27T22:25:33.056Z,67.67
2023-02-27T22:27:59.838Z,69.29
2023-02-27T22:30:27.185Z,71.30
2023-02-27T22:32:54.630Z,70.66
2023-02-27T22:35:22.418Z,68.86
2023-02-27T22:37:49.242Z,67.15
2023-02-27T22:40:17.857Z,69.52
2023-02-27T22:42:44.997Z,69.58
2023-02-27T22:45:11.713Z,68.67
2023-02-27T22:47:38.516Z,68.64
2023-02-27T22:50:05.849Z,70.31
2023-02-27T22:52:35.398Z,70.14
2023-02-27T22:55:02.035Z,69.49
2023-02-27T22:57:28.462Z,69.74
2023-02-27T22:59:55.396Z,70.46
2023-02-27T23:18:26.766Z,75.01
2023-02-27T23:20:53.869Z,74.26
2023-02-27T23:23:20.444Z,74.48
2023-02-27T23:25:47.025Z,74.37
2023-02-27T23:28:13.616Z,73.18
2023-02-27T23:30:40.181Z,72.83
2023-02-27T23:33:06.714Z,73.80
2023-02-27T23:35:33.362Z,75.03
2023-02-27T23:38:00.737Z,75.13
2023-02-27T23:40:28.663Z,75.04
2023-02-27T23:42:55.243Z,71.96
2023-02-27T23:45:24.427Z,72.34
2023-02-27T23:47:52.089Z,74.74
2023-02-27T23:50:21.434Z,73.51
2023-02-27T23:52:49.567Z,74.18
2023-02-27T23:55:17.775Z,75.20
2023-02-27T23:57:44.659Z,74.71
